Terminal Aerodrome Forecast
Issued by NWS

Home | Current Version | Previous Version | Text Only | Print | Product List | Glossary On
Versions: 1 2 3 4 5 6 7 8 9 10 11 12 13 14 15
000
FTUS44 KSJT 110300 CCA
TAFJCT
TAF COR
KJCT 110325Z 1103/1124 16011G18KT P6SM FEW050 SCT120
     FM111000 15004KT P6SM SCT020 SCT120
     FM111500 17012G19KT P6SM SCT040=

USA.gov is the U.S. government's official web portal to all federal, state and local government web resources and services.